createdAt,value
2019-02-26T00:02:46.523Z,999.90
2019-02-26T00:07:50.930Z,999.90
2019-02-26T00:12:52.881Z,999.90
2019-02-26T00:17:56.212Z,999.90
2019-02-26T00:23:00.223Z,969.83
2019-02-26T00:28:04.642Z,977.63
2019-02-26T00:33:08.109Z,948.17
2019-02-26T00:38:13.406Z,971.17
2019-02-26T00:43:20.944Z,972.37
2019-02-26T00:48:26.441Z,933.57
2019-02-26T00:53:30.619Z,979.20
2019-02-26T00:58:38.882Z,955.53
2019-02-26T01:03:43.037Z,969.30
2019-02-26T01:08:47.084Z,995.20
2019-02-26T01:13:51.186Z,984.80
2019-02-26T01:18:56.114Z,951.07
2019-02-26T01:24:01.741Z,999.90
2019-02-26T01:29:05.277Z,955.23
2019-02-26T01:34:09.779Z,940.10
2019-02-26T01:39:16.167Z,954.23
2019-02-26T01:44:19.366Z,973.70
2019-02-26T01:49:23.746Z,983.03
2019-02-26T01:54:30.625Z,962.73
2019-02-26T01:59:34.514Z,980.43
2019-02-26T02:04:39.374Z,960.67
2019-02-26T02:09:46.540Z,959.30
2019-02-26T02:14:49.393Z,999.90
2019-02-26T02:19:52.725Z,999.90
2019-02-26T02:24:56.102Z,999.90
2019-02-26T02:29:59.485Z,999.90
2019-02-26T02:35:06.707Z,997.63
2019-02-26T02:40:09.018Z,999.90
2019-02-26T02:45:16.090Z,999.90
2019-02-26T02:50:18.708Z,999.90
2019-02-26T02:55:22.122Z,999.90
2019-02-26T03:00:28.471Z,999.73
2019-02-26T03:05:35.213Z,997.03
2019-02-26T03:10:40.102Z,999.90
2019-02-26T03:15:44.187Z,999.90
2019-02-26T03:20:47.781Z,999.90
2019-02-26T03:25:52.897Z,998.37
2019-02-26T03:30:57.741Z,999.90
2019-02-26T03:36:05.487Z,999.90
2019-02-26T03:41:07.717Z,999.90
2019-02-26T03:46:12.325Z,999.90
2019-02-26T03:51:17.889Z,999.90
2019-02-26T03:56:24.405Z,999.90
2019-02-26T04:01:29.052Z,999.90
2019-02-26T04:06:33.426Z,913.10
2019-02-26T04:11:39.332Z,999.90
2019-02-26T04:16:44.070Z,999.90
2019-02-26T04:22:26.166Z,999.90
2019-02-26T04:27:41.997Z,999.90
2019-02-26T04:33:20.025Z,999.90
2019-02-26T04:39:04.571Z,999.90
2019-02-26T04:44:36.410Z,999.90
2019-02-26T04:49:42.811Z,999.90
2019-02-26T04:54:45.390Z,999.90
2019-02-26T04:59:49.761Z,991.33
2019-02-26T05:04:53.144Z,999.90
2019-02-26T05:09:58.891Z,999.90
2019-02-26T05:15:02.094Z,999.90
2019-02-26T05:20:09.158Z,999.90
2019-02-26T05:25:16.332Z,999.90
2019-02-26T05:30:19.623Z,999.90
2019-02-26T05:35:23.444Z,992.87
2019-02-26T05:40:27.513Z,999.90
2019-02-26T05:45:33.065Z,999.90
2019-02-26T05:50:38.458Z,954.90
2019-02-26T05:55:44.341Z,999.90
2019-02-26T06:00:47.312Z,981.57
2019-02-26T06:05:51.967Z,975.77
2019-02-26T06:10:56.503Z,999.90
2019-02-26T06:16:02.168Z,872.43
2019-02-26T06:21:05.462Z,999.90
2019-02-26T06:26:13.836Z,999.90
2019-02-26T06:31:16.658Z,993.00
2019-02-26T06:36:21.497Z,918.93
2019-02-26T06:41:24.958Z,993.53
2019-02-26T06:46:29.366Z,999.90
2019-02-26T06:51:34.252Z,999.90
2019-02-26T06:56:43.287Z,999.70
2019-02-26T07:01:43.441Z,999.90
2019-02-26T07:06:46.815Z,999.90
2019-02-26T07:11:50.690Z,994.93
2019-02-26T07:16:54.101Z,999.90
2019-02-26T07:21:57.553Z,999.90
2019-02-26T07:27:02.464Z,999.90
2019-02-26T07:32:06.613Z,999.90
2019-02-26T07:37:11.584Z,999.90
2019-02-26T07:42:18.348Z,999.90
2019-02-26T07:47:22.078Z,999.90
2019-02-26T07:52:26.581Z,999.90
2019-02-26T07:57:30.402Z,999.90
2019-02-26T08:02:35.064Z,999.90
2019-02-26T08:07:39.183Z,999.90
2019-02-26T08:12:42.719Z,999.90
2019-02-26T08:17:50.186Z,999.90
2019-02-26T08:22:54.070Z,999.90
2019-02-26T08:27:59.347Z,999.90
2019-02-26T08:33:06.736Z,999.90
2019-02-26T08:38:08.910Z,999.90
2019-02-26T08:43:13.346Z,999.90
2019-02-26T08:48:17.332Z,999.90
2019-02-26T08:53:22.576Z,999.90
2019-02-26T08:58:28.291Z,999.90
2019-02-26T09:03:40.350Z,999.90
2019-02-26T09:08:38.580Z,999.90
2019-02-26T09:13:43.854Z,999.90
2019-02-26T09:18:47.722Z,999.90
2019-02-26T09:23:54.922Z,999.90
2019-02-26T09:28:57.178Z,999.90
2019-02-26T09:34:00.619Z,999.90
2019-02-26T09:39:08.210Z,999.90
2019-02-26T09:44:12.007Z,999.90
2019-02-26T09:49:16.126Z,999.90
2019-02-26T09:54:22.102Z,999.90
2019-02-26T09:59:26.404Z,999.90
2019-02-26T10:04:30.233Z,999.90
2019-02-26T10:09:36.795Z,999.90
2019-02-26T10:14:39.040Z,999.90
2019-02-26T10:19:43.033Z,999.90
2019-02-26T10:24:46.794Z,999.90
2019-02-26T10:29:50.368Z,999.90
2019-02-26T10:34:53.867Z,999.90
2019-02-26T10:39:57.214Z,999.90
2019-02-26T10:45:00.968Z,999.90
2019-02-26T10:50:05.270Z,999.90
2019-02-26T10:55:12.795Z,999.90
2019-02-26T11:00:27.931Z,999.90
2019-02-26T11:05:30.636Z,999.90
2019-02-26T11:10:34.211Z,999.90
2019-02-26T11:15:37.840Z,999.90
2019-02-26T11:20:41.722Z,999.90
2019-02-26T11:25:46.178Z,999.90
2019-02-26T11:30:51.586Z,999.90
2019-02-26T11:35:54.849Z,999.90
2019-02-26T11:40:58.670Z,999.90
2019-02-26T11:46:03.842Z,999.90
2019-02-26T11:51:07.590Z,999.90
2019-02-26T11:56:13.123Z,999.90
2019-02-26T12:01:17.319Z,999.90
2019-02-26T12:06:21.058Z,999.90
2019-02-26T12:11:24.716Z,999.90
2019-02-26T12:16:28.580Z,999.90
2019-02-26T12:21:34.505Z,999.90
2019-02-26T12:26:37.693Z,999.90
2019-02-26T12:31:41.008Z,999.90
2019-02-26T12:36:44.824Z,999.90
2019-02-26T12:41:48.642Z,999.90
2019-02-26T12:46:53.807Z,999.90
2019-02-26T12:51:59.793Z,999.90
2019-02-26T12:57:04.279Z,999.90
2019-02-26T13:02:10.002Z,999.90
2019-02-26T13:07:13.250Z,999.90
2019-02-26T13:12:20.263Z,999.90
2019-02-26T13:17:26.202Z,999.90
2019-02-26T13:22:26.784Z,999.90
2019-02-26T13:27:30.279Z,999.90
2019-02-26T13:32:54.435Z,999.90
2019-02-26T13:37:42.079Z,999.90
2019-02-26T13:42:50.052Z,999.90
2019-02-26T13:47:49.959Z,999.90
2019-02-26T13:52:54.145Z,999.90
2019-02-26T13:57:58.111Z,999.90
2019-02-26T14:03:01.482Z,999.90
2019-02-26T14:08:05.058Z,999.90
2019-02-26T14:13:08.349Z,999.90
2019-02-26T14:18:11.983Z,999.90
2019-02-26T14:23:15.363Z,999.90
2019-02-26T14:28:20.010Z,999.90
2019-02-26T14:33:23.923Z,999.90
2019-02-26T14:38:27.817Z,999.90
2019-02-26T14:43:31.714Z,999.90
2019-02-26T14:48:35.559Z,999.90
2019-02-26T14:53:39.593Z,999.90
2019-02-26T14:58:44.004Z,999.90
2019-02-26T15:03:47.814Z,999.90
2019-02-26T15:08:51.122Z,999.90
2019-02-26T15:13:55.790Z,999.90
2019-02-26T15:18:59.103Z,999.90
2019-02-26T15:24:03.557Z,999.90
2019-02-26T15:29:08.081Z,999.90
2019-02-26T15:34:11.695Z,999.90
2019-02-26T15:39:15.170Z,999.90
2019-02-26T15:44:19.007Z,999.90
2019-02-26T15:49:22.786Z,999.90
2019-02-26T15:54:27.326Z,999.90
2019-02-26T15:59:31.243Z,999.90
2019-02-26T16:04:35.787Z,999.90
2019-02-26T16:20:17.346Z,969.43
2019-02-26T16:25:21.303Z,941.37
2019-02-26T16:30:25.305Z,963.37
2019-02-26T16:35:29.723Z,899.83
2019-02-26T16:40:34.070Z,868.67
2019-02-26T16:45:38.419Z,931.50
2019-02-26T16:50:45.340Z,938.20
2019-02-26T16:55:49.560Z,971.83
2019-02-26T17:00:53.100Z,963.70
2019-02-26T17:05:56.404Z,999.90
2019-02-26T17:11:00.143Z,999.90
2019-02-26T17:16:03.676Z,997.13
2019-02-26T17:21:07.054Z,978.43
2019-02-26T17:26:10.826Z,940.80
2019-02-26T17:31:14.133Z,964.27
2019-02-26T17:36:18.037Z,980.70
2019-02-26T17:41:21.961Z,999.90
2019-02-26T17:46:25.286Z,999.90
2019-02-26T17:51:28.986Z,995.73
2019-02-26T17:56:32.357Z,989.03
2019-02-26T18:01:36.402Z,980.80
2019-02-26T18:06:39.804Z,954.90
2019-02-26T18:11:43.343Z,951.37
2019-02-26T18:16:46.969Z,992.47
2019-02-26T18:21:51.713Z,990.67
2019-02-26T18:26:55.285Z,958.53
2019-02-26T18:31:59.006Z,999.90
2019-02-26T18:37:02.771Z,979.90
2019-02-26T18:42:12.972Z,994.60
2019-02-26T18:47:16.554Z,970.67
2019-02-26T18:52:27.131Z,963.83
2019-02-26T18:57:31.206Z,963.07
2019-02-26T19:02:42.205Z,999.90
2019-02-26T19:07:56.144Z,968.40
2019-02-26T19:13:02.435Z,967.33
2019-02-26T19:18:05.157Z,993.73
2019-02-26T19:23:08.922Z,965.23
2019-02-26T19:28:12.903Z,999.90
2019-02-26T19:33:18.775Z,983.37
2019-02-26T19:38:21.810Z,968.60
2019-02-26T19:43:25.977Z,940.67
2019-02-26T19:48:30.918Z,964.37
2019-02-26T19:53:35.405Z,953.50
2019-02-26T19:58:41.014Z,967.40
2019-02-26T20:03:46.170Z,951.20
2019-02-26T20:08:50.599Z,952.77
2019-02-26T20:13:53.957Z,935.07
2019-02-26T20:18:59.143Z,999.90
2019-02-26T20:24:03.493Z,979.63
2019-02-26T20:29:07.793Z,999.90
2019-02-26T20:34:12.095Z,997.70
2019-02-26T20:39:15.389Z,999.90
2019-02-26T20:44:18.910Z,986.10
2019-02-26T20:49:23.250Z,999.90
2019-02-26T20:54:27.290Z,999.90
2019-02-26T20:59:30.582Z,966.70
2019-02-26T21:04:33.890Z,982.60
2019-02-26T21:09:37.800Z,973.47
2019-02-26T21:14:42.734Z,999.90
2019-02-26T21:19:46.409Z,999.90
2019-02-26T21:24:50.230Z,999.90
2019-02-26T21:29:53.545Z,999.90
2019-02-26T21:34:57.269Z,999.90
2019-02-26T21:40:00.559Z,997.63
2019-02-26T21:45:04.669Z,999.90
2019-02-26T21:50:08.329Z,999.90
2019-02-26T21:55:12.138Z,999.90
2019-02-26T22:00:16.416Z,999.90
2019-02-26T22:05:20.267Z,883.97
2019-02-26T22:10:23.988Z,991.40
2019-02-26T22:15:27.337Z,987.63
2019-02-26T22:20:36.208Z,999.90
2019-02-26T22:25:36.430Z,991.33
2019-02-26T22:30:39.898Z,954.23
2019-02-26T22:35:43.626Z,976.77
2019-02-26T22:40:47.758Z,605.57
2019-02-26T22:45:51.522Z,553.23
2019-02-26T22:50:59.567Z,526.90
2019-02-26T22:56:00.414Z,688.73
2019-02-26T23:01:18.422Z,846.40
2019-02-26T23:06:22.222Z,968.60
2019-02-26T23:11:31.676Z,999.90
2019-02-26T23:16:32.297Z,985.37
2019-02-26T23:21:36.843Z,964.47
2019-02-26T23:26:42.549Z,977.80
2019-02-26T23:31:46.029Z,991.37
2019-02-26T23:36:49.526Z,985.00
2019-02-26T23:41:53.322Z,999.90
2019-02-26T23:46:57.174Z,865.37
2019-02-26T23:52:00.479Z,705.27
2019-02-26T23:57:03.949Z,689.57
